Terminal Aerodrome Forecast
Issued by NWS

Home | Current Version | Previous Version | Text Only | Print | Product List | Glossary On
Versions: 1 2 3 4 5 6 7 8 9 10 11 12 13 14 15 16 17
000
FTUS45 KSLC 272324
TAFENV
TAF
KENV 272324Z 2800/2824 34015G25KT P6SM SCT060 SCT120
     FM280900 33012G19KT P6SM SCT040 BKN080
     FM281600 34018G28KT P6SM VCSH SCT030 BKN060
      AMD LTD TO CLD VIS AND WIND=

USA.gov is the U.S. government's official web portal to all federal, state and local government web resources and services.